Time;durP1;ratioP1;P1;durP2;ratioP2;P2;SDS_P1;SDS_P2;PMS_P1;PMS_P2;Temp;Humidity;BMP_temperature;BMP_pressure;BME280_temperature;BME280_humidity;BME280_pressure;Samples;Min_cycle;Max_cycle;Signal;HPM_P1;HPM_P2
2023/08/31 00:01:40;;;;;;;1.77;1.60;;;;;;;;;;4993782;28;20234;-72
2023/08/31 00:04:08;;;;;;;1.63;1.45;;;;;;;;;;4993822;28;20690;-72
2023/08/31 00:06:34;;;;;;;1.98;1.45;;;;;;;;;;4993643;28;20286;-72
2023/08/31 00:09:00;;;;;;;1.40;1.30;;;;;;;;;;4993810;28;20207;-72
2023/08/31 00:11:27;;;;;;;3.30;1.40;;;;;;;;;;4993565;28;20600;-72
2023/08/31 00:13:53;;;;;;;2.03;1.30;;;;;;;;;;4993711;28;20207;-72
2023/08/31 00:16:24;;;;;;;2.45;1.30;;;;;;;;;;4993904;28;20207;-72
2023/08/31 00:18:52;;;;;;;1.60;1.50;;;;;;;;;;4993712;28;20253;-72
2023/08/31 00:21:18;;;;;;;1.88;1.60;;;;;;;;;;4993317;28;20230;-72
2023/08/31 00:23:44;;;;;;;1.30;1.30;;;;;;;;;;4993407;28;20203;-72
2023/08/31 00:26:11;;;;;;;1.35;1.25;;;;;;;;;;4993675;28;20203;-72
2023/08/31 00:28:38;;;;;;;1.52;1.30;;;;;;;;;;4993560;28;20219;-72
2023/08/31 00:31:05;;;;;;;2.25;1.60;;;;;;;;;;4993310;28;20266;-72
2023/08/31 00:33:33;;;;;;;1.65;1.60;;;;;;;;;;4993304;28;20203;-72
2023/08/31 00:36:03;;;;;;;1.48;1.48;;;;;;;;;;4992890;28;20687;-72
2023/08/31 00:38:29;;;;;;;1.63;1.50;;;;;;;;;;4992203;28;20695;-72
2023/08/31 00:40:55;;;;;;;2.05;1.63;;;;;;;;;;4993018;28;20219;-72
2023/08/31 00:43:22;;;;;;;1.75;1.65;;;;;;;;;;4993107;28;20235;-71
2023/08/31 00:45:49;;;;;;;3.67;1.58;;;;;;;;;;4993169;28;20213;-71
2023/08/31 00:48:17;;;;;;;1.52;1.50;;;;;;;;;;4992918;28;20242;-71
2023/08/31 00:50:43;;;;;;;1.92;1.48;;;;;;;;;;4992864;28;20203;-71
2023/08/31 00:53:11;;;;;;;3.45;1.52;;;;;;;;;;4992694;28;20199;-71
2023/08/31 00:58:06;;;;;;;2.28;2.00;;;;;;;;;;5010840;28;20218;-70
2023/08/31 01:00:37;;;;;;;2.25;1.80;;;;;;;;;;5012013;28;20213;-70
2023/08/31 01:03:08;;;;;;;2.13;1.70;;;;;;;;;;5000748;28;20210;-70
2023/08/31 01:05:37;;;;;;;1.80;1.70;;;;;;;;;;5000461;28;20203;-69
2023/08/31 01:08:08;;;;;;;1.60;1.50;;;;;;;;;;5003480;28;20223;-69
2023/08/31 01:10:39;;;;;;;1.83;1.73;;;;;;;;;;5003962;28;20210;-70
2023/08/31 01:13:11;;;;;;;1.70;1.60;;;;;;;;;;5000445;28;20203;-70
2023/08/31 01:15:38;;;;;;;1.55;1.52;;;;;;;;;;5000398;28;20221;-70
2023/08/31 01:18:06;;;;;;;1.80;1.70;;;;;;;;;;5003482;28;20194;-70
2023/08/31 01:20:35;;;;;;;1.90;1.48;;;;;;;;;;5003379;28;20566;-70
2023/08/31 01:23:04;;;;;;;1.80;1.70;;;;;;;;;;5000805;28;20218;-70
2023/08/31 01:25:32;;;;;;;1.90;1.80;;;;;;;;;;5000303;28;20282;-70
2023/08/31 01:27:59;;;;;;;3.95;1.60;;;;;;;;;;5002456;28;20314;-70
2023/08/31 01:30:25;;;;;;;1.60;1.50;;;;;;;;;;5003775;28;20203;-69
2023/08/31 01:32:52;;;;;;;1.98;1.83;;;;;;;;;;4994898;28;20602;-70
2023/08/31 01:35:19;;;;;;;1.80;1.70;;;;;;;;;;5003687;28;20217;-69
2023/08/31 01:37:47;;;;;;;2.65;2.10;;;;;;;;;;5003736;28;20242;-70
2023/08/31 01:40:16;;;;;;;3.80;2.17;;;;;;;;;;5003424;28;20213;-70
2023/08/31 01:42:44;;;;;;;4.00;1.75;;;;;;;;;;5003237;28;20240;-70
2023/08/31 01:45:11;;;;;;;5.10;2.10;;;;;;;;;;5003480;28;20194;-70
2023/08/31 01:47:37;;;;;;;1.98;1.88;;;;;;;;;;5003810;28;20242;-70
2023/08/31 01:50:04;;;;;;;2.58;2.10;;;;;;;;;;5004383;28;20210;-70
2023/08/31 01:52:30;;;;;;;2.38;1.70;;;;;;;;;;5004478;28;20252;-70
2023/08/31 01:54:57;;;;;;;4.78;1.70;;;;;;;;;;5005831;28;20230;-70
2023/08/31 01:57:23;;;;;;;2.50;1.77;;;;;;;;;;5007189;28;20198;-70
2023/08/31 01:59:51;;;;;;;1.98;1.77;;;;;;;;;;5006421;28;20593;-70
2023/08/31 02:02:17;;;;;;;2.58;1.95;;;;;;;;;;5003480;28;20227;-70
2023/08/31 02:04:44;;;;;;;3.03;1.73;;;;;;;;;;5004109;28;20199;-69
2023/08/31 02:07:10;;;;;;;1.75;1.60;;;;;;;;;;5003930;28;20198;-69
2023/08/31 02:09:36;;;;;;;1.92;1.85;;;;;;;;;;5003809;28;20230;-69
2023/08/31 02:12:02;;;;;;;1.77;1.67;;;;;;;;;;5005696;28;20234;-69
2023/08/31 02:14:30;;;;;;;2.25;1.58;;;;;;;;;;5006852;28;20738;-70
2023/08/31 02:16:57;;;;;;;5.55;1.92;;;;;;;;;;5005648;28;20290;-70
2023/08/31 02:19:24;;;;;;;1.85;1.70;;;;;;;;;;5008828;28;20662;-70
2023/08/31 02:21:50;;;;;;;2.25;1.92;;;;;;;;;;5005832;28;20781;-70
2023/08/31 02:24:16;;;;;;;2.45;1.70;;;;;;;;;;5003678;28;20206;-70
2023/08/31 02:26:42;;;;;;;1.92;1.80;;;;;;;;;;5003600;28;20203;-70
2023/08/31 02:29:09;;;;;;;1.67;1.58;;;;;;;;;;5006265;28;20264;-69
2023/08/31 02:31:35;;;;;;;2.25;1.75;;;;;;;;;;5007068;28;20226;-70
2023/08/31 02:34:02;;;;;;;5.82;1.92;;;;;;;;;;5005341;28;20589;-69
2023/08/31 02:36:29;;;;;;;2.22;2.03;;;;;;;;;;5003382;28;20199;-70
2023/08/31 02:38:55;;;;;;;1.77;1.67;;;;;;;;;;5004258;28;20195;-70
2023/08/31 02:41:21;;;;;;;2.95;1.70;;;;;;;;;;5006228;28;20301;-69
2023/08/31 02:43:48;;;;;;;2.20;1.73;;;;;;;;;;5006488;28;20628;-69
2023/08/31 02:46:14;;;;;;;1.75;1.70;;;;;;;;;;5003206;28;20200;-70
2023/08/31 02:48:40;;;;;;;2.63;1.60;;;;;;;;;;5003272;28;20230;-70
2023/08/31 02:51:08;;;;;;;3.67;1.88;;;;;;;;;;5005055;28;20227;-71
2023/08/31 02:53:34;;;;;;;2.25;1.63;;;;;;;;;;5006264;28;20202;-70
2023/08/31 02:56:00;;;;;;;1.55;1.55;;;;;;;;;;5004378;28;20214;-70
2023/08/31 02:58:27;;;;;;;1.70;1.60;;;;;;;;;;5002665;28;20246;-70
2023/08/31 03:00:53;;;;;;;1.80;1.70;;;;;;;;;;5002039;28;20229;-70
2023/08/31 03:03:19;;;;;;;3.65;2.10;;;;;;;;;;5005994;28;20731;-70
2023/08/31 03:05:46;;;;;;;1.63;1.52;;;;;;;;;;5006292;28;20226;-70
2023/08/31 03:08:14;;;;;;;2.47;1.60;;;;;;;;;;5002871;28;20266;-70
2023/08/31 03:10:40;;;;;;;1.60;1.50;;;;;;;;;;5002518;28;20203;-70
2023/08/31 03:13:06;;;;;;;2.20;1.65;;;;;;;;;;5004443;28;20211;-70
2023/08/31 03:15:33;;;;;;;1.73;1.63;;;;;;;;;;5006116;28;20209;-70
2023/08/31 03:17:59;;;;;;;2.78;1.70;;;;;;;;;;5004981;28;20209;-70
2023/08/31 03:20:26;;;;;;;1.80;1.70;;;;;;;;;;5002557;28;20195;-69
2023/08/31 03:22:52;;;;;;;1.83;1.73;;;;;;;;;;5001941;28;20219;-69
2023/08/31 03:25:20;;;;;;;4.20;2.03;;;;;;;;;;5002223;28;20695;-70
2023/08/31 03:27:46;;;;;;;1.95;1.85;;;;;;;;;;5002253;28;20199;-70
2023/08/31 03:30:13;;;;;;;1.73;1.73;;;;;;;;;;5004864;28;20206;-70
2023/08/31 03:32:39;;;;;;;2.00;1.83;;;;;;;;;;5005273;28;20241;-70
2023/08/31 03:35:07;;;;;;;1.95;1.85;;;;;;;;;;5003857;28;20214;-70
2023/08/31 03:37:33;;;;;;;1.98;1.67;;;;;;;;;;5002087;28;20223;-69
2023/08/31 03:39:59;;;;;;;2.10;2.00;;;;;;;;;;5001942;28;20210;-69
2023/08/31 03:42:27;;;;;;;2.00;1.90;;;;;;;;;;5001846;28;20226;-69
2023/08/31 03:44:53;;;;;;;1.83;1.73;;;;;;;;;;5002018;28;20199;-70
2023/08/31 03:47:19;;;;;;;2.72;1.55;;;;;;;;;;5002153;28;20226;-70
2023/08/31 03:49:46;;;;;;;2.00;1.77;;;;;;;;;;5001806;28;20215;-69
2023/08/31 03:52:12;;;;;;;1.80;1.70;;;;;;;;;;5003857;28;20235;-70
2023/08/31 03:54:38;;;;;;;1.80;1.70;;;;;;;;;;5007516;28;20222;-70
2023/08/31 03:57:05;;;;;;;2.25;2.15;;;;;;;;;;5003259;28;20214;-70
2023/08/31 03:59:32;;;;;;;2.00;1.90;;;;;;;;;;5005705;28;20199;-69
2023/08/31 04:01:59;;;;;;;1.80;1.70;;;;;;;;;;5005656;28;20226;-69
2023/08/31 04:04:25;;;;;;;1.95;1.85;;;;;;;;;;5001975;28;20581;-69
2023/08/31 04:06:51;;;;;;;2.08;1.98;;;;;;;;;;5001653;28;20246;-69
2023/08/31 04:09:18;;;;;;;2.80;1.92;;;;;;;;;;5004257;28;20218;-69
2023/08/31 04:11:45;;;;;;;2.92;2.20;;;;;;;;;;5004498;28;20643;-69
2023/08/31 04:14:11;;;;;;;1.90;1.80;;;;;;;;;;5002818;28;20278;-69
2023/08/31 04:16:39;;;;;;;3.17;2.20;;;;;;;;;;5001434;28;20231;-62
2023/08/31 04:19:05;;;;;;;1.83;1.73;;;;;;;;;;5002582;28;20203;-62
2023/08/31 04:21:32;;;;;;;2.75;2.30;;;;;;;;;;5004052;28;20222;-62
2023/08/31 04:23:59;;;;;;;3.58;2.13;;;;;;;;;;5004220;28;20713;-62
2023/08/31 04:26:26;;;;;;;2.17;2.08;;;;;;;;;;5001184;28;20282;-62
2023/08/31 04:28:52;;;;;;;2.08;1.98;;;;;;;;;;5000988;28;20219;-63
2023/08/31 04:31:18;;;;;;;2.17;1.90;;;;;;;;;;5003366;28;20745;-62
2023/08/31 04:33:47;;;;;;;2.30;2.20;;;;;;;;;;5004364;28;20585;-62
2023/08/31 04:36:13;;;;;;;2.55;2.35;;;;;;;;;;5002151;28;20293;-62
2023/08/31 04:38:39;;;;;;;2.70;2.30;;;;;;;;;;5001262;28;20207;-62
2023/08/31 04:41:06;;;;;;;2.67;2.50;;;;;;;;;;5001815;28;20253;-62
2023/08/31 04:43:32;;;;;;;3.28;2.05;;;;;;;;;;5004394;28;20202;-62
2023/08/31 04:45:58;;;;;;;2.35;2.17;;;;;;;;;;5004177;28;20645;-62
2023/08/31 04:48:24;;;;;;;6.88;2.30;;;;;;;;;;5000869;28;20650;-61
2023/08/31 04:50:53;;;;;;;3.53;2.22;;;;;;;;;;5000697;28;20223;-61
2023/08/31 04:53:20;;;;;;;2.20;2.10;;;;;;;;;;5003305;28;20206;-62
2023/08/31 04:55:46;;;;;;;2.15;2.05;;;;;;;;;;5004038;28;20202;-63
2023/08/31 04:58:12;;;;;;;2.45;2.05;;;;;;;;;;5002367;28;20217;-63
2023/08/31 05:00:39;;;;;;;3.13;2.30;;;;;;;;;;5000598;28;20199;-62
2023/08/31 05:03:05;;;;;;;2.78;2.22;;;;;;;;;;5000881;28;20286;-62
2023/08/31 05:05:32;;;;;;;2.22;1.67;;;;;;;;;;5003802;28;20202;-62
2023/08/31 05:07:59;;;;;;;2.75;2.55;;;;;;;;;;5004052;28;20558;-62
2023/08/31 05:10:26;;;;;;;2.38;2.17;;;;;;;;;;5000327;28;20759;-62
2023/08/31 05:12:52;;;;;;;2.90;2.70;;;;;;;;;;5000061;28;20293;-62
2023/08/31 05:15:18;;;;;;;3.85;2.47;;;;;;;;;;5002601;28;20233;-61
2023/08/31 05:17:44;;;;;;;4.03;2.30;;;;;;;;;;5003584;28;20320;-61
2023/08/31 05:20:11;;;;;;;2.53;2.33;;;;;;;;;;5002330;28;20206;-61
2023/08/31 05:22:37;;;;;;;4.07;2.35;;;;;;;;;;5000238;28;20411;-62
2023/08/31 05:25:05;;;;;;;3.05;2.80;;;;;;;;;;4999796;28;20203;-63
2023/08/31 05:27:32;;;;;;;2.20;2.20;;;;;;;;;;5003834;28;20205;-61
2023/08/31 05:29:58;;;;;;;2.67;2.25;;;;;;;;;;5003751;28;20214;-61
2023/08/31 05:32:24;;;;;;;3.95;2.42;;;;;;;;;;5000321;28;20242;-62
2023/08/31 05:34:50;;;;;;;3.72;2.47;;;;;;;;;;5000253;28;20690;-63
2023/08/31 05:37:16;;;;;;;2.90;2.45;;;;;;;;;;5002020;28;20676;-62
2023/08/31 05:39:43;;;;;;;3.03;2.60;;;;;;;;;;5003569;28;20659;-62
2023/08/31 05:42:10;;;;;;;5.85;2.95;;;;;;;;;;5002802;28;20219;-62
2023/08/31 05:44:37;;;;;;;2.53;2.28;;;;;;;;;;5000136;28;20724;-62
2023/08/31 05:47:03;;;;;;;2.50;2.30;;;;;;;;;;5000505;28;20699;-62
2023/08/31 05:49:29;;;;;;;4.45;2.40;;;;;;;;;;5003142;28;20580;-62
2023/08/31 05:51:55;;;;;;;4.07;3.20;;;;;;;;;;5003106;28;20672;-61
2023/08/31 05:54:22;;;;;;;2.80;2.60;;;;;;;;;;5001130;28;20602;-61
2023/08/31 05:56:48;;;;;;;2.80;2.55;;;;;;;;;;5000144;28;20586;-61
2023/08/31 05:59:15;;;;;;;2.92;2.60;;;;;;;;;;5001163;28;20206;-62
2023/08/31 06:01:42;;;;;;;3.38;2.38;;;;;;;;;;5003214;28;20221;-63
2023/08/31 06:04:09;;;;;;;3.40;2.70;;;;;;;;;;5002991;28;20766;-62
2023/08/31 06:06:35;;;;;;;4.20;2.67;;;;;;;;;;5000272;28;20230;-63
2023/08/31 06:09:01;;;;;;;2.92;2.72;;;;;;;;;;5000184;28;20297;-61
2023/08/31 06:11:28;;;;;;;2.60;2.40;;;;;;;;;;5002572;28;20232;-62
2023/08/31 06:13:54;;;;;;;3.08;2.80;;;;;;;;;;5003628;28;20199;-61
2023/08/31 06:16:22;;;;;;;5.13;2.97;;;;;;;;;;5001582;28;20203;-62
2023/08/31 06:18:49;;;;;;;3.67;3.03;;;;;;;;;;5000047;28;20191;-62
2023/08/31 06:21:15;;;;;;;4.72;3.00;;;;;;;;;;5000650;28;20234;-61
2023/08/31 06:23:41;;;;;;;2.42;2.20;;;;;;;;;;5000684;28;20209;-63
2023/08/31 06:26:07;;;;;;;4.43;2.90;;;;;;;;;;5002841;28;20222;-65
2023/08/31 06:28:33;;;;;;;10.07;2.88;;;;;;;;;;4995072;28;20721;-62
2023/08/31 06:31:00;;;;;;;3.00;2.55;;;;;;;;;;4987631;28;20758;-62
2023/08/31 06:33:27;;;;;;;2.20;2.03;;;;;;;;;;4993600;28;20702;-61
2023/08/31 06:35:54;;;;;;;2.50;2.25;;;;;;;;;;4989823;28;20629;-63
2023/08/31 06:38:20;;;;;;;2.20;2.00;;;;;;;;;;4993672;28;20215;-64
2023/08/31 06:40:47;;;;;;;6.53;2.65;;;;;;;;;;4994701;28;20542;-62
2023/08/31 06:43:13;;;;;;;5.80;2.28;;;;;;;;;;5000190;28;20215;-64
2023/08/31 06:45:40;;;;;;;3.88;2.50;;;;;;;;;;5003099;28;20206;-64
2023/08/31 06:48:06;;;;;;;3.08;2.53;;;;;;;;;;5011296;28;20686;-64
2023/08/31 06:50:35;;;;;;;2.83;2.35;;;;;;;;;;5006775;28;20218;-64
2023/08/31 06:53:03;;;;;;;4.43;2.50;;;;;;;;;;5012690;28;20301;-65
2023/08/31 06:58:05;;;;;;;4.60;2.20;;;;;;;;;;5015565;28;20225;-66
2023/08/31 07:00:32;;;;;;;4.30;2.50;;;;;;;;;;5019639;28;20217;-66
2023/08/31 07:02:58;;;;;;;2.38;2.17;;;;;;;;;;4994788;28;20203;-66
2023/08/31 07:05:25;;;;;;;2.05;1.95;;;;;;;;;;4998335;28;20570;-66
2023/08/31 07:07:54;;;;;;;3.50;2.10;;;;;;;;;;5001287;28;20702;-66
2023/08/31 07:10:21;;;;;;;4.30;2.10;;;;;;;;;;4992951;28;20773;-65
2023/08/31 07:12:47;;;;;;;4.20;2.60;;;;;;;;;;5005955;28;20234;-64
2023/08/31 07:15:13;;;;;;;3.72;1.88;;;;;;;;;;4998521;28;20237;-62
2023/08/31 07:17:40;;;;;;;3.55;1.90;;;;;;;;;;5000319;28;20214;-64
2023/08/31 07:20:07;;;;;;;4.30;2.00;;;;;;;;;;5007723;28;20682;-64
2023/08/31 07:22:33;;;;;;;3.00;2.03;;;;;;;;;;4993609;28;20233;-64
2023/08/31 07:25:01;;;;;;;3.15;1.90;;;;;;;;;;4999114;28;20226;-64
2023/08/31 07:27:28;;;;;;;7.10;2.30;;;;;;;;;;5000281;28;20317;-65
2023/08/31 07:29:55;;;;;;;2.08;1.88;;;;;;;;;;4996093;28;20219;-63
2023/08/31 07:32:22;;;;;;;5.43;2.10;;;;;;;;;;4996778;28;20227;-64
2023/08/31 07:34:48;;;;;;;6.68;2.40;;;;;;;;;;5002882;28;20215;-64
2023/08/31 07:37:14;;;;;;;3.00;1.60;;;;;;;;;;4995955;28;20665;-64
2023/08/31 07:39:41;;;;;;;3.80;2.00;;;;;;;;;;4995560;28;20690;-63
2023/08/31 07:42:08;;;;;;;4.22;2.10;;;;;;;;;;4994627;28;20226;-65
2023/08/31 07:44:34;;;;;;;3.22;1.80;;;;;;;;;;4992931;28;20213;-63
2023/08/31 07:47:02;;;;;;;8.45;1.90;;;;;;;;;;4995670;28;20211;-63
2023/08/31 07:49:28;;;;;;;2.05;1.42;;;;;;;;;;4999129;28;20219;-64
2023/08/31 07:51:54;;;;;;;5.05;2.33;;;;;;;;;;4997106;28;20817;-64
2023/08/31 07:54:21;;;;;;;4.20;1.98;;;;;;;;;;4987021;28;20277;-65
2023/08/31 07:56:47;;;;;;;4.82;2.17;;;;;;;;;;4998319;28;20746;-66
2023/08/31 07:59:15;;;;;;;3.47;1.73;;;;;;;;;;4990500;28;20215;-66
2023/08/31 08:01:42;;;;;;;1.67;1.52;;;;;;;;;;5001016;28;20223;-66
2023/08/31 08:04:08;;;;;;;5.85;1.50;;;;;;;;;;4993961;28;20686;-65
2023/08/31 08:06:35;;;;;;;2.17;1.88;;;;;;;;;;4996431;28;20210;-65
2023/08/31 08:09:01;;;;;;;5.40;1.98;;;;;;;;;;4987785;28;20215;-65
2023/08/31 08:11:27;;;;;;;3.40;2.10;;;;;;;;;;4995520;28;20706;-67
2023/08/31 08:13:53;;;;;;;8.38;1.88;;;;;;;;;;4994657;28;20667;-65
2023/08/31 08:16:21;;;;;;;5.63;2.13;;;;;;;;;;4992461;28;20222;-65
2023/08/31 08:18:47;;;;;;;2.05;1.83;;;;;;;;;;5003637;28;20480;-64
2023/08/31 08:21:14;;;;;;;3.10;1.83;;;;;;;;;;4998033;28;20226;-66
2023/08/31 08:23:40;;;;;;;1.75;1.65;;;;;;;;;;4993195;28;20713;-65
2023/08/31 08:26:06;;;;;;;2.70;1.60;;;;;;;;;;4993357;28;20627;-65
2023/08/31 08:28:32;;;;;;;3.83;1.75;;;;;;;;;;4994887;28;20214;-66
2023/08/31 08:31:01;;;;;;;5.45;1.83;;;;;;;;;;4994963;28;20231;-66
2023/08/31 08:33:29;;;;;;;2.17;1.55;;;;;;;;;;4994420;28;20752;-65
2023/08/31 08:35:56;;;;;;;2.97;1.35;;;;;;;;;;4994212;28;20207;-67
2023/08/31 08:38:23;;;;;;;4.22;1.73;;;;;;;;;;4992172;28;20691;-63
2023/08/31 08:40:49;;;;;;;1.90;1.73;;;;;;;;;;5002945;28;20682;-65
2023/08/31 08:43:15;;;;;;;5.15;1.60;;;;;;;;;;4996820;28;20635;-64
2023/08/31 08:45:44;;;;;;;3.25;2.08;;;;;;;;;;5000341;28;20921;-65
2023/08/31 08:48:10;;;;;;;4.20;1.70;;;;;;;;;;4993333;28;20720;-65
2023/08/31 08:50:38;;;;;;;2.55;1.77;;;;;;;;;;4995620;28;20582;-66
2023/08/31 08:53:05;;;;;;;4.68;1.77;;;;;;;;;;4990024;28;20215;-68
2023/08/31 08:55:31;;;;;;;1.70;1.60;;;;;;;;;;4994613;28;20206;-66
2023/08/31 08:57:58;;;;;;;1.45;1.38;;;;;;;;;;4995114;28;20219;-66
2023/08/31 09:00:25;;;;;;;2.78;1.60;;;;;;;;;;4994697;28;20210;-65
2023/08/31 09:02:51;;;;;;;8.40;2.13;;;;;;;;;;5000693;28;20226;-65
2023/08/31 09:05:17;;;;;;;6.05;1.70;;;;;;;;;;4995130;28;20430;-65
2023/08/31 09:08:04;;;;;;;3.60;1.52;;;;;;;;;;4995940;28;20215;-66
2023/08/31 09:10:37;;;;;;;2.55;1.90;;;;;;;;;;5000259;28;20222;-66
2023/08/31 09:13:05;;;;;;;3.25;1.50;;;;;;;;;;5000893;28;20218;-65
2023/08/31 09:15:37;;;;;;;4.18;1.90;;;;;;;;;;4994921;28;20222;-66
2023/08/31 09:18:04;;;;;;;3.55;1.90;;;;;;;;;;4988216;28;20663;-65
2023/08/31 09:20:30;;;;;;;3.17;1.80;;;;;;;;;;4999781;28;20218;-65
2023/08/31 09:22:57;;;;;;;4.05;1.90;;;;;;;;;;4995161;28;20210;-64
2023/08/31 09:25:25;;;;;;;4.13;2.35;;;;;;;;;;5000702;28;20233;-65
2023/08/31 09:27:51;;;;;;;1.92;1.63;;;;;;;;;;4992966;28;20598;-67
2023/08/31 09:30:18;;;;;;;5.20;2.17;;;;;;;;;;4997159;28;20234;-64
2023/08/31 09:32:44;;;;;;;2.17;1.60;;;;;;;;;;4986725;28;20238;-66
2023/08/31 09:35:11;;;;;;;2.45;1.75;;;;;;;;;;4985418;28;20203;-65
2023/08/31 09:37:38;;;;;;;2.53;2.10;;;;;;;;;;4999936;28;20218;-66
2023/08/31 09:40:04;;;;;;;2.65;1.67;;;;;;;;;;4992669;28;20202;-65
2023/08/31 09:42:38;;;;;;;2.42;1.50;;;;;;;;;;4994276;28;20718;-66
2023/08/31 09:45:05;;;;;;;4.85;1.70;;;;;;;;;;4996929;28;20297;-66
2023/08/31 09:47:31;;;;;;;1.80;1.70;;;;;;;;;;4995950;28;20219;-66
2023/08/31 09:49:59;;;;;;;3.72;1.55;;;;;;;;;;4996896;28;20229;-63
2023/08/31 09:52:25;;;;;;;2.60;1.55;;;;;;;;;;4990957;28;20223;-63
2023/08/31 09:54:52;;;;;;;2.90;1.60;;;;;;;;;;4995951;28;20225;-68
2023/08/31 09:57:18;;;;;;;3.42;1.67;;;;;;;;;;4997096;28;20242;-67
2023/08/31 09:59:46;;;;;;;3.25;1.77;;;;;;;;;;4988431;28;20211;-65
2023/08/31 10:02:12;;;;;;;5.05;1.90;;;;;;;;;;5002003;28;20654;-65
2023/08/31 10:04:39;;;;;;;2.83;1.65;;;;;;;;;;4990675;28;20214;-64
2023/08/31 10:07:06;;;;;;;5.75;1.80;;;;;;;;;;4991099;28;20202;-66
2023/08/31 10:09:32;;;;;;;4.53;1.80;;;;;;;;;;4996985;28;20689;-66
2023/08/31 10:11:59;;;;;;;2.35;1.85;;;;;;;;;;4993587;28;20720;-65
2023/08/31 10:14:25;;;;;;;3.13;1.52;;;;;;;;;;4998949;28;21755;-63
2023/08/31 10:16:54;;;;;;;3.17;1.65;;;;;;;;;;5004391;28;20207;-63
2023/08/31 10:19:20;;;;;;;3.85;1.65;;;;;;;;;;4995639;28;20218;-64
2023/08/31 10:21:47;;;;;;;3.03;1.38;;;;;;;;;;4997910;28;20318;-65
2023/08/31 10:24:13;;;;;;;3.58;1.60;;;;;;;;;;4993595;28;20211;-64
2023/08/31 10:26:39;;;;;;;2.70;1.50;;;;;;;;;;4999693;28;20614;-64
2023/08/31 10:29:05;;;;;;;2.28;1.42;;;;;;;;;;4995437;28;20268;-64
2023/08/31 10:31:33;;;;;;;2.15;1.73;;;;;;;;;;4994733;28;20245;-66
2023/08/31 10:34:03;;;;;;;3.13;1.80;;;;;;;;;;5005439;28;20218;-67
2023/08/31 10:36:36;;;;;;;2.55;1.65;;;;;;;;;;5000111;28;20696;-66
2023/08/31 10:39:06;;;;;;;3.50;1.92;;;;;;;;;;4996221;28;20214;-64
2023/08/31 10:41:33;;;;;;;8.32;1.98;;;;;;;;;;4996427;28;20223;-67
2023/08/31 10:44:00;;;;;;;2.60;1.55;;;;;;;;;;4995726;28;20455;-67
2023/08/31 10:46:27;;;;;;;2.60;1.90;;;;;;;;;;5000812;28;20284;-67
2023/08/31 10:48:54;;;;;;;3.90;1.70;;;;;;;;;;4992287;28;20632;-67
2023/08/31 10:51:23;;;;;;;3.60;2.03;;;;;;;;;;4996583;28;20230;-65
2023/08/31 10:53:50;;;;;;;3.88;1.73;;;;;;;;;;4995912;28;20786;-67
2023/08/31 10:56:16;;;;;;;3.42;1.85;;;;;;;;;;4989737;28;20215;-65
2023/08/31 10:58:44;;;;;;;4.07;2.00;;;;;;;;;;5000623;28;20217;-65
2023/08/31 11:01:10;;;;;;;7.28;2.03;;;;;;;;;;4997817;28;20728;-65
2023/08/31 11:03:51;;;;;;;6.72;1.75;;;;;;;;;;4996155;28;20226;-67
2023/08/31 11:06:19;;;;;;;5.07;2.10;;;;;;;;;;4993766;28;20210;-65
2023/08/31 11:08:47;;;;;;;4.25;1.83;;;;;;;;;;4990415;28;20207;-67
2023/08/31 11:11:13;;;;;;;4.25;1.90;;;;;;;;;;4995867;28;20235;-67
2023/08/31 11:13:39;;;;;;;5.75;2.30;;;;;;;;;;4996460;28;20533;-65
2023/08/31 11:16:06;;;;;;;4.10;2.15;;;;;;;;;;4991287;28;20605;-66
2023/08/31 11:18:32;;;;;;;2.95;1.73;;;;;;;;;;5003495;28;20221;-66
2023/08/31 11:20:59;;;;;;;8.73;2.10;;;;;;;;;;4991235;28;20256;-66
2023/08/31 11:23:26;;;;;;;6.82;2.13;;;;;;;;;;4998647;28;20463;-65
2023/08/31 11:25:53;;;;;;;3.60;1.90;;;;;;;;;;4995484;28;20637;-67
2023/08/31 11:28:20;;;;;;;2.35;1.80;;;;;;;;;;4994672;28;20210;-66
2023/08/31 11:30:49;;;;;;;5.97;1.92;;;;;;;;;;4994299;28;20302;-66
2023/08/31 11:33:15;;;;;;;2.97;2.05;;;;;;;;;;4999268;28;20202;-64
2023/08/31 11:35:44;;;;;;;4.90;2.00;;;;;;;;;;4996954;28;20218;-67
2023/08/31 11:38:11;;;;;;;3.35;1.83;;;;;;;;;;4998705;28;20214;-65
2023/08/31 11:40:37;;;;;;;4.38;2.00;;;;;;;;;;4995656;28;20393;-66
2023/08/31 11:43:06;;;;;;;3.95;1.73;;;;;;;;;;4991399;28;20257;-65
2023/08/31 11:45:32;;;;;;;3.20;1.98;;;;;;;;;;4996153;28;20226;-65
2023/08/31 11:47:59;;;;;;;1.55;1.50;;;;;;;;;;4995110;28;20431;-66
2023/08/31 11:50:26;;;;;;;3.30;2.00;;;;;;;;;;4997152;28;20215;-66
2023/08/31 11:52:53;;;;;;;3.13;2.10;;;;;;;;;;4990588;28;20604;-66
2023/08/31 11:55:20;;;;;;;4.70;2.28;;;;;;;;;;4994377;28;20206;-66
2023/08/31 11:57:50;;;;;;;5.75;1.90;;;;;;;;;;4993726;28;20207;-66
2023/08/31 12:00:19;;;;;;;5.22;1.90;;;;;;;;;;4995312;28;20217;-65
2023/08/31 12:02:46;;;;;;;4.65;1.80;;;;;;;;;;5000855;28;20618;-66
2023/08/31 12:05:13;;;;;;;3.33;1.80;;;;;;;;;;4998437;28;20296;-67
2023/08/31 12:07:42;;;;;;;3.28;1.85;;;;;;;;;;4999107;28;20211;-67
2023/08/31 12:10:09;;;;;;;2.80;1.85;;;;;;;;;;4987162;28;20215;-67
2023/08/31 12:12:36;;;;;;;6.43;2.13;;;;;;;;;;4988464;28;20231;-67
2023/08/31 12:15:03;;;;;;;5.47;2.10;;;;;;;;;;4995275;28;20215;-67
2023/08/31 12:17:31;;;;;;;5.00;1.98;;;;;;;;;;4988311;28;20289;-67
2023/08/31 12:20:04;;;;;;;2.22;2.03;;;;;;;;;;4996457;28;20209;-66
2023/08/31 12:22:30;;;;;;;4.32;1.80;;;;;;;;;;4990354;28;20277;-66
2023/08/31 12:24:56;;;;;;;4.97;2.00;;;;;;;;;;4991649;28;20218;-67
2023/08/31 12:27:22;;;;;;;4.57;2.00;;;;;;;;;;4989235;28;20207;-66
2023/08/31 12:29:50;;;;;;;3.45;2.08;;;;;;;;;;4993221;28;20207;-66
2023/08/31 12:32:17;;;;;;;5.25;1.95;;;;;;;;;;4996996;28;20305;-66
2023/08/31 12:34:45;;;;;;;2.15;1.73;;;;;;;;;;4995575;28;20207;-65
2023/08/31 12:37:11;;;;;;;4.13;1.65;;;;;;;;;;5002457;28;20219;-65
2023/08/31 12:39:38;;;;;;;5.95;2.03;;;;;;;;;;4992641;28;20203;-65
2023/08/31 12:42:04;;;;;;;4.57;1.77;;;;;;;;;;4995179;28;20721;-65
2023/08/31 12:44:31;;;;;;;2.42;2.00;;;;;;;;;;4993176;28;20595;-65
2023/08/31 12:46:57;;;;;;;4.85;2.00;;;;;;;;;;4997334;28;20637;-64
2023/08/31 12:49:23;;;;;;;4.25;1.88;;;;;;;;;;4996287;28;20211;-64
2023/08/31 12:51:51;;;;;;;2.80;1.83;;;;;;;;;;4998316;28;20249;-64
2023/08/31 12:54:18;;;;;;;4.60;1.98;;;;;;;;;;4993599;28;20210;-64
2023/08/31 12:56:44;;;;;;;3.35;1.98;;;;;;;;;;4995035;28;20210;-64
2023/08/31 12:59:10;;;;;;;4.63;2.00;;;;;;;;;;4994329;28;20241;-64
2023/08/31 13:01:37;;;;;;;3.03;1.60;;;;;;;;;;4999262;28;20276;-64
2023/08/31 13:04:05;;;;;;;4.32;1.52;;;;;;;;;;4996169;28;20211;-64
2023/08/31 13:06:31;;;;;;;5.72;1.63;;;;;;;;;;4999369;28;20213;-64
2023/08/31 13:08:58;;;;;;;2.75;1.73;;;;;;;;;;4995401;28;20680;-64
2023/08/31 13:11:25;;;;;;;2.95;1.33;;;;;;;;;;4996554;28;20261;-64
2023/08/31 13:13:52;;;;;;;2.83;1.60;;;;;;;;;;5002568;28;20207;-66
2023/08/31 13:16:18;;;;;;;2.35;1.60;;;;;;;;;;4995286;28;20207;-64
2023/08/31 13:18:45;;;;;;;1.83;1.58;;;;;;;;;;4996618;28;20679;-64
2023/08/31 13:21:11;;;;;;;3.35;2.10;;;;;;;;;;4996985;28;20316;-64
2023/08/31 13:23:37;;;;;;;4.28;1.80;;;;;;;;;;4997825;28;20206;-64
2023/08/31 13:26:05;;;;;;;4.22;2.05;;;;;;;;;;4993096;28;20207;-64
2023/08/31 13:28:31;;;;;;;2.88;2.17;;;;;;;;;;4994314;28;20829;-64
2023/08/31 13:31:00;;;;;;;2.83;1.60;;;;;;;;;;4993420;28;20226;-64
2023/08/31 13:33:28;;;;;;;7.72;2.17;;;;;;;;;;4997167;28;20242;-64
2023/08/31 13:35:54;;;;;;;4.25;1.70;;;;;;;;;;4995271;28;20760;-64
2023/08/31 13:38:21;;;;;;;2.45;1.73;;;;;;;;;;5000244;28;20234;-64
2023/08/31 13:40:47;;;;;;;2.88;1.83;;;;;;;;;;4987424;28;20218;-64
2023/08/31 13:43:14;;;;;;;3.00;1.95;;;;;;;;;;4996589;28;20682;-64
2023/08/31 13:45:41;;;;;;;4.43;1.88;;;;;;;;;;4992236;28;20206;-64
2023/08/31 13:48:07;;;;;;;4.85;2.28;;;;;;;;;;4995666;28;20211;-65
2023/08/31 13:50:33;;;;;;;2.40;2.08;;;;;;;;;;4994841;28;20234;-65
2023/08/31 13:53:00;;;;;;;2.33;1.92;;;;;;;;;;4986358;28;20634;-65
2023/08/31 13:55:27;;;;;;;4.75;2.13;;;;;;;;;;4993924;28;20206;-64
2023/08/31 13:57:53;;;;;;;4.75;1.88;;;;;;;;;;5001211;28;20241;-64
2023/08/31 14:00:21;;;;;;;4.20;2.30;;;;;;;;;;4988871;28;20268;-64
2023/08/31 14:02:47;;;;;;;3.35;2.00;;;;;;;;;;4995476;28;20326;-64
2023/08/31 14:05:14;;;;;;;6.60;2.33;;;;;;;;;;4995253;28;20219;-64
2023/08/31 14:07:40;;;;;;;5.20;1.85;;;;;;;;;;4992930;28;20671;-65
2023/08/31 14:10:07;;;;;;;3.83;2.03;;;;;;;;;;4997769;28;20221;-64
2023/08/31 14:12:34;;;;;;;4.75;1.80;;;;;;;;;;4995532;28;20702;-64
2023/08/31 14:15:02;;;;;;;4.60;1.85;;;;;;;;;;4991273;28;20222;-64
2023/08/31 14:17:30;;;;;;;3.00;1.90;;;;;;;;;;4993009;28;20210;-64
2023/08/31 14:19:57;;;;;;;2.17;1.67;;;;;;;;;;4989219;28;20220;-64
2023/08/31 14:22:23;;;;;;;5.07;1.92;;;;;;;;;;4995976;28;20702;-64
2023/08/31 14:24:49;;;;;;;4.68;2.03;;;;;;;;;;4992381;28;20202;-64
2023/08/31 14:27:16;;;;;;;5.22;1.98;;;;;;;;;;4996198;28;20211;-64
2023/08/31 14:29:42;;;;;;;3.15;1.85;;;;;;;;;;4989177;28;20693;-64
2023/08/31 14:32:09;;;;;;;3.05;1.80;;;;;;;;;;4997549;28;20717;-64
2023/08/31 14:34:36;;;;;;;7.63;2.05;;;;;;;;;;4994107;28;20207;-64
2023/08/31 14:37:03;;;;;;;4.68;2.08;;;;;;;;;;4987098;28;20695;-64
2023/08/31 14:39:30;;;;;;;3.63;2.05;;;;;;;;;;4995667;28;20206;-64
2023/08/31 14:41:57;;;;;;;3.63;1.60;;;;;;;;;;4994128;28;20226;-64
2023/08/31 14:44:23;;;;;;;3.53;1.73;;;;;;;;;;4994344;28;20211;-64
2023/08/31 14:46:50;;;;;;;2.42;1.60;;;;;;;;;;4989525;28;20207;-64